Time;durP1;ratioP1;P1;durP2;ratioP2;P2;SDS_P1;SDS_P2;PMS_P1;PMS_P2;Temp;Humidity;BMP_temperature;BMP_pressure;BME280_temperature;BME280_humidity;BME280_pressure;Samples;Min_cycle;Max_cycle;Signal;HPM_P1;HPM_P2
2023/10/14 00:00:31;;;;;;;33.40;20.02;;;;;;;18.05;61.27;100609.77;1717031;82;21873;-80
2023/10/14 00:03:37;;;;;;;35.30;19.98;;;;;;;18.08;61.13;100610.73;1682602;85;21886;-81
2023/10/14 00:06:44;;;;;;;47.43;22.02;;;;;;;18.22;60.42;100612.92;1682134;83;21321;-81
2023/10/14 00:09:51;;;;;;;44.90;17.25;;;;;;;18.24;59.93;100614.38;1716390;83;21870;-82
2023/10/14 00:12:58;;;;;;;26.35;16.95;;;;;;;18.21;59.95;100611.20;1710858;84;21895;-82
2023/10/14 00:16:08;;;;;;;32.93;19.15;;;;;;;18.29;59.96;100613.19;1681489;84;21326;-82
2023/10/14 00:19:13;;;;;;;34.80;19.80;;;;;;;18.25;60.15;100603.62;1732342;83;22189;-82
2023/10/14 00:22:19;;;;;;;30.12;18.80;;;;;;;18.23;60.43;100607.16;1725777;83;21314;-82
2023/10/14 00:25:26;;;;;;;25.30;16.80;;;;;;;18.24;60.50;100608.00;1713622;83;21880;-82
2023/10/14 00:28:32;;;;;;;27.93;17.42;;;;;;;18.08;60.63;100619.89;1703445;84;21288;-82
2023/10/14 00:31:38;;;;;;;35.13;16.97;;;;;;;18.12;60.39;100617.00;1734554;82;21304;-81
2023/10/14 00:34:44;;;;;;;29.37;18.37;;;;;;;18.10;60.56;100620.50;1735576;82;21311;-82
2023/10/14 00:37:52;;;;;;;31.60;19.40;;;;;;;18.00;60.67;100612.35;1735545;82;21938;-82
2023/10/14 00:40:59;;;;;;;36.00;19.95;;;;;;;17.86;61.27;100611.00;1735622;82;21327;-81
2023/10/14 00:44:04;;;;;;;30.72;18.45;;;;;;;18.12;60.84;100612.00;1735464;82;21291;-81
2023/10/14 00:47:15;;;;;;;31.02;18.87;;;;;;;18.15;60.87;100618.47;1735512;82;21674;-80
2023/10/14 00:50:35;;;;;;;29.48;18.67;;;;;;;18.23;60.59;100616.84;1735325;82;21647;-81
2023/10/14 00:53:52;;;;;;;28.45;18.75;;;;;;;18.17;60.24;100619.66;1718595;82;21316;-80
2023/10/14 00:56:49;;;;;;;37.58;20.25;;;;;;;18.11;59.75;100622.23;1723948;83;21307;-79
2023/10/14 00:59:57;;;;;;;32.28;20.88;;;;;;;17.89;59.67;100623.56;1723795;83;21331;-80
2023/10/14 01:03:07;;;;;;;42.03;22.40;;;;;;;17.81;59.49;100627.94;1725521;83;21332;-80
2023/10/14 01:06:23;;;;;;;37.67;21.90;;;;;;;17.82;59.18;100628.25;1719814;83;21852;-80
2023/10/14 01:09:49;;;;;;;36.60;16.37;;;;;;;17.67;59.43;100630.37;1719811;83;21316;-81
2023/10/14 01:12:45;;;;;;;30.55;16.87;;;;;;;17.62;59.23;100631.88;1718636;83;21331;-81
2023/10/14 01:15:58;;;;;;;31.12;17.55;;;;;;;17.84;58.78;100639.43;1701436;83;21325;-81
2023/10/14 01:18:57;;;;;;;39.92;18.62;;;;;;;17.86;58.68;100643.36;1691323;85;21259;-81
2023/10/14 01:22:04;;;;;;;64.87;15.00;;;;;;;17.68;59.25;100643.14;1691295;85;21883;-81
2023/10/14 01:25:06;;;;;;;29.07;14.43;;;;;;;17.64;59.35;100645.47;1691568;85;21913;-81
2023/10/14 01:28:12;;;;;;;26.15;14.33;;;;;;;17.54;59.92;100642.30;1691633;85;21330;-80
2023/10/14 01:31:34;;;;;;;27.90;15.55;;;;;;;17.60;59.92;100642.31;1691157;85;21338;-81
2023/10/14 01:34:43;;;;;;;26.80;15.05;;;;;;;17.49;60.17;100642.94;1691470;85;21350;-81
2023/10/14 01:37:49;;;;;;;34.78;17.07;;;;;;;17.55;60.07;100642.11;1691483;85;21310;-81
2023/10/14 01:40:55;;;;;;;25.65;16.35;;;;;;;17.45;60.35;100640.81;1691600;85;21328;-81
2023/10/14 01:44:02;;;;;;;31.60;19.75;;;;;;;17.59;59.83;100641.97;1691504;85;21656;-81
2023/10/14 01:47:01;;;;;;;38.60;21.80;;;;;;;17.65;59.38;100639.44;1691273;85;21634;-81
2023/10/14 01:50:01;;;;;;;62.83;18.70;;;;;;;17.74;58.81;100639.03;1691486;85;21291;-81
2023/10/14 01:53:12;;;;;;;83.55;20.88;;;;;;;17.57;59.17;100639.96;1691234;85;21302;-82
2023/10/14 01:56:17;;;;;;;69.50;18.50;;;;;;;17.49;59.28;100640.70;1686710;83;21334;-80
2023/10/14 01:59:23;;;;;;;46.65;24.98;;;;;;;17.55;58.97;100642.11;1729612;81;21295;-81
2023/10/14 02:02:28;;;;;;;43.73;25.05;;;;;;;17.71;58.14;100639.95;1768316;81;21323;-81
2023/10/14 02:05:40;;;;;;;51.77;21.20;;;;;;;17.58;57.95;100646.34;1768025;81;21311;-81
2023/10/14 02:08:44;;;;;;;29.20;18.57;;;;;;;17.27;58.51;100648.39;1768264;81;21288;-81
2023/10/14 02:11:50;;;;;;;34.30;13.72;;;;;;;17.37;57.72;100647.43;1768273;81;21315;-81
2023/10/14 02:14:59;;;;;;;21.52;14.50;;;;;;;17.24;57.49;100646.88;1761655;81;21727;-81
2023/10/14 02:18:04;;;;;;;42.58;12.50;;;;;;;16.99;58.12;100642.52;1703347;84;21295;-79
2023/10/14 02:21:16;;;;;;;17.95;12.65;;;;;;;17.00;58.05;100641.97;1738750;82;21672;-81
2023/10/14 02:24:19;;;;;;;26.80;12.37;;;;;;;17.04;57.43;100644.64;1703679;84;21717;-80
2023/10/14 02:27:26;;;;;;;17.85;12.40;;;;;;;16.90;57.64;100639.63;1738787;82;21910;-81
2023/10/14 02:30:32;;;;;;;16.75;11.00;;;;;;;16.72;58.50;100643.52;1718209;82;21255;-80
2023/10/14 02:33:39;;;;;;;19.70;13.70;;;;;;;16.75;58.70;100643.07;1769610;81;21280;-81
2023/10/14 02:36:49;;;;;;;21.55;14.60;;;;;;;16.80;58.70;100643.33;1768694;81;21258;-81
2023/10/14 02:39:55;;;;;;;23.38;14.90;;;;;;;17.10;57.96;100644.64;1739288;82;21271;-80
2023/10/14 02:43:02;;;;;;;21.45;15.30;;;;;;;16.95;58.48;100641.22;1684222;85;21286;-80
2023/10/14 02:46:10;;;;;;;32.28;19.23;;;;;;;17.10;58.29;100640.49;1731315;81;21884;-81
2023/10/14 02:49:14;;;;;;;23.60;15.60;;;;;;;17.10;58.59;100646.02;1728687;83;21936;-81
2023/10/14 02:52:30;;;;;;;24.87;16.50;;;;;;;17.19;58.60;100642.52;1728483;81;21325;-80
2023/10/14 02:56:04;;;;;;;23.22;15.43;;;;;;;17.06;59.45;100642.51;1728629;83;21344;-80
2023/10/14 02:59:02;;;;;;;23.07;15.75;;;;;;;17.31;59.49;100637.20;1691018;85;21331;-80
2023/10/14 03:02:14;;;;;;;26.07;16.12;;;;;;;17.38;59.86;100633.37;1689719;85;21299;-80
2023/10/14 03:08:57;;;;;;;27.98;17.00;;;;;;;17.39;61.18;100619.02;1730271;82;21267;-81
2023/10/14 03:11:53;;;;;;;24.67;17.75;;;;;;;17.50;61.53;100614.25;1737784;82;21295;-81
2023/10/14 03:14:59;;;;;;;29.25;18.48;;;;;;;17.84;61.19;100606.77;1738303;82;21292;-81
2023/10/14 03:18:06;;;;;;;29.52;18.52;;;;;;;17.97;61.23;100598.94;1738192;82;21606;-81
2023/10/14 03:21:59;;;;;;;33.33;18.55;;;;;;;18.22;60.98;100602.70;1738144;82;21326;-80
2023/10/14 03:24:20;;;;;;;31.62;18.70;;;;;;;18.11;61.32;100607.51;1725915;82;21291;-79
2023/10/14 03:27:32;;;;;;;30.95;18.57;;;;;;;18.01;61.72;100605.73;1737672;82;21267;-80
2023/10/14 03:30:37;;;;;;;31.48;17.48;;;;;;;18.23;61.39;100600.23;1738227;82;21968;-80
2023/10/14 03:33:45;;;;;;;32.45;18.35;;;;;;;18.42;60.87;100605.91;1738340;82;21311;-81
2023/10/14 03:37:00;;;;;;;29.30;18.05;;;;;;;18.45;60.61;100605.47;1738098;82;21833;-81
2023/10/14 03:43:22;;;;;;;33.10;17.65;;;;;;;18.28;60.88;100603.73;1738496;82;21729;-80
2023/10/14 03:46:35;;;;;;;25.72;16.17;;;;;;;18.19;61.05;100607.81;1738688;82;21343;-80
2023/10/14 03:49:43;;;;;;;23.02;16.52;;;;;;;18.38;60.38;100616.56;1738918;82;21263;-80
2023/10/14 03:52:49;;;;;;;32.48;16.75;;;;;;;18.20;60.51;100613.66;1738743;82;21303;-81
2023/10/14 03:55:54;;;;;;;26.93;15.58;;;;;;;18.18;60.72;100614.42;1738709;82;21669;-81
2023/10/14 03:59:01;;;;;;;18.37;13.88;;;;;;;18.10;61.11;100616.34;1761446;79;21295;-80
2023/10/14 04:02:15;;;;;;;24.67;17.23;;;;;;;18.24;60.96;100615.77;1769599;81;21704;-81
2023/10/14 04:05:16;;;;;;;27.13;17.48;;;;;;;18.29;60.44;100615.11;1769691;81;21829;-80
2023/10/14 04:08:30;;;;;;;38.17;19.57;;;;;;;18.42;60.34;100616.98;1769675;81;21806;-81
2023/10/14 04:11:35;;;;;;;31.65;18.00;;;;;;;18.49;60.56;100620.55;1769126;81;21289;-81
2023/10/14 04:14:37;;;;;;;30.95;17.65;;;;;;;18.60;60.64;100615.72;1765656;81;21288;-81
2023/10/14 04:17:48;;;;;;;33.75;19.25;;;;;;;18.70;60.77;100623.58;1687329;84;21915;-80
2023/10/14 04:27:33;;;;;;;38.90;21.70;;;;;;;18.98;60.00;100624.03;1754492;81;21291;-81
2023/10/14 04:30:32;;;;;;;36.85;19.62;;;;;;;19.11;59.70;100629.48;1761730;81;21268;-81
2023/10/14 04:33:52;;;;;;;28.77;18.67;;;;;;;19.05;59.80;100627.59;1768740;81;21261;-82
2023/10/14 04:36:53;;;;;;;34.73;19.52;;;;;;;18.97;60.10;100627.88;1769465;81;22183;-81
2023/10/14 04:39:59;;;;;;;37.42;18.05;;;;;;;19.01;60.05;100620.83;1767975;81;21822;-81
2023/10/14 04:46:32;;;;;;;31.05;17.98;;;;;;;18.84;60.71;100634.89;1769490;81;21304;-81
2023/10/14 04:49:36;;;;;;;34.67;19.67;;;;;;;18.67;61.25;100637.83;1769792;81;21359;-81
2023/10/14 04:52:38;;;;;;;31.87;19.27;;;;;;;19.02;60.57;100636.91;1758229;81;21341;-81
2023/10/14 04:55:51;;;;;;;34.98;20.48;;;;;;;19.25;59.78;100646.03;1738909;82;21793;-81
2023/10/14 04:58:57;;;;;;;36.05;19.52;;;;;;;19.23;59.95;100642.07;1739521;81;21663;-81
2023/10/14 05:02:03;;;;;;;27.75;16.82;;;;;;;19.05;60.68;100635.91;1703610;84;21291;-82
2023/10/14 05:05:10;;;;;;;33.28;18.85;;;;;;;19.02;60.55;100634.98;1739195;82;21270;-81
2023/10/14 05:08:17;;;;;;;29.32;15.70;;;;;;;19.27;60.09;100636.94;1722494;82;21272;-82
2023/10/14 05:11:25;;;;;;;39.90;20.17;;;;;;;19.23;59.93;100624.59;1769915;81;21276;-81
2023/10/14 05:14:37;;;;;;;36.85;18.55;;;;;;;19.29;60.29;100623.67;1767040;81;21300;-81
2023/10/14 05:17:43;;;;;;;29.30;19.00;;;;;;;19.24;60.65;100627.13;1739072;82;21285;-81
2023/10/14 05:24:03;;;;;;;30.45;17.92;;;;;;;19.10;61.60;100626.41;1737524;81;21273;-82
2023/10/14 05:27:09;;;;;;;36.85;19.23;;;;;;;19.28;61.13;100623.37;1702507;84;21377;-82
2023/10/14 05:30:21;;;;;;;32.58;18.75;;;;;;;19.43;60.67;100623.87;1749535;81;21692;-81
2023/10/14 05:33:23;;;;;;;41.53;20.23;;;;;;;19.20;61.59;100623.67;1761559;81;21670;-80
2023/10/14 05:36:29;;;;;;;44.93;22.82;;;;;;;19.33;61.60;100616.61;1769139;81;21327;-81
2023/10/14 05:39:37;;;;;;;66.35;28.57;;;;;;;19.24;62.19;100618.80;1768513;81;21307;-81
2023/10/14 05:42:45;;;;;;;55.75;27.65;;;;;;;19.14;62.95;100626.24;1768258;81;21315;-81
2023/10/14 05:45:52;;;;;;;47.55;25.10;;;;;;;19.23;62.84;100630.13;1748420;81;21325;-82
2023/10/14 05:49:01;;;;;;;64.03;25.88;;;;;;;19.51;62.44;100630.53;1738263;82;21349;-82
2023/10/14 05:52:08;;;;;;;57.95;26.42;;;;;;;19.52;62.58;100626.67;1736377;81;21318;-82
2023/10/14 05:55:19;;;;;;;69.47;30.77;;;;;;;19.67;62.18;100629.16;1728379;83;21848;-81
2023/10/14 05:58:27;;;;;;;72.67;32.38;;;;;;;19.73;62.15;100627.38;1728352;83;21330;-81
2023/10/14 06:01:29;;;;;;;81.80;36.93;;;;;;;19.88;61.78;100637.58;1775134;80;21302;-80
2023/10/14 06:04:45;;;;;;;85.00;34.43;;;;;;;19.90;62.04;100636.80;1783259;80;21307;-82
2023/10/14 06:07:49;;;;;;;75.25;31.87;;;;;;;19.96;62.09;100644.22;1781720;80;21311;-82
2023/10/14 06:10:53;;;;;;;70.03;32.15;;;;;;;20.08;61.87;100649.30;1783232;80;21295;-82
2023/10/14 06:13:58;;;;;;;72.35;31.93;;;;;;;20.27;61.21;100645.14;1783226;80;21272;-82
2023/10/14 06:17:04;;;;;;;66.47;28.80;;;;;;;20.31;61.16;100643.60;1782304;80;21300;-83
2023/10/14 06:20:16;;;;;;;71.92;29.60;;;;;;;20.57;60.63;100646.09;1782171;80;21335;-81
2023/10/14 06:23:18;;;;;;;55.20;25.25;;;;;;;20.75;60.16;100641.55;1782288;80;21860;-82
2023/10/14 06:26:25;;;;;;;59.75;24.40;;;;;;;20.85;59.78;100640.47;1783334;80;21956;-82
2023/10/14 06:29:31;;;;;;;48.73;20.10;;;;;;;21.10;59.20;100647.25;1782811;80;21792;-82
2023/10/14 06:32:36;;;;;;;35.30;14.33;;;;;;;21.18;58.89;100644.98;1781722;80;21322;-82
2023/10/14 06:35:43;;;;;;;25.35;12.95;;;;;;;21.42;57.70;100647.84;1781588;80;21224;-82
2023/10/14 06:38:51;;;;;;;23.98;10.48;;;;;;;21.56;57.33;100647.92;1783048;80;21285;-82
2023/10/14 06:41:59;;;;;;;22.25;10.35;;;;;;;21.23;58.05;100647.59;1782424;80;21307;-83
2023/10/14 06:45:05;;;;;;;22.25;9.08;;;;;;;21.05;57.90;100652.14;1782860;80;21327;-83
2023/10/14 06:48:12;;;;;;;21.68;9.65;;;;;;;21.03;57.70;100645.98;1781702;80;21259;-83
2023/10/14 06:51:11;;;;;;;31.07;10.50;;;;;;;21.09;57.50;100646.41;1781663;80;21307;-82
2023/10/14 06:54:09;;;;;;;34.10;10.80;;;;;;;21.40;56.79;100651.39;1783184;80;21928;-82
2023/10/14 06:57:11;;;;;;;19.02;9.93;;;;;;;21.31;57.10;100645.88;1781874;80;21841;-83
2023/10/14 07:00:25;;;;;;;20.80;9.73;;;;;;;21.30;57.21;100649.72;1782005;80;21676;-83
2023/10/14 07:03:28;;;;;;;16.67;9.25;;;;;;;21.60;56.54;100647.75;1783278;80;21276;-83
2023/10/14 07:06:35;;;;;;;23.50;9.35;;;;;;;21.78;55.68;100641.74;1782586;80;21923;-83
2023/10/14 07:09:44;;;;;;;26.12;9.23;;;;;;;21.96;54.92;100641.62;1781605;80;21271;-82
2023/10/14 07:12:50;;;;;;;20.72;10.00;;;;;;;22.02;54.75;100634.22;1783040;80;21291;-83
2023/10/14 07:15:58;;;;;;;21.93;9.13;;;;;;;22.11;54.20;100639.72;1761703;80;21288;-82
2023/10/14 07:19:04;;;;;;;19.92;8.48;;;;;;;22.26;53.83;100632.30;1752351;82;21857;-82
2023/10/14 07:22:11;;;;;;;18.95;8.48;;;;;;;22.13;54.14;100628.69;1751425;80;21316;-82
2023/10/14 07:25:23;;;;;;;14.80;7.45;;;;;;;22.15;54.08;100630.66;1752769;82;21614;-82
2023/10/14 07:28:26;;;;;;;18.12;7.80;;;;;;;22.08;54.40;100632.72;1752846;82;21288;-82
2023/10/14 07:31:31;;;;;;;18.57;9.18;;;;;;;22.34;53.58;100631.90;1751928;80;21664;-82
2023/10/14 07:34:38;;;;;;;24.25;8.78;;;;;;;22.29;53.63;100629.00;1752351;82;21308;-82
2023/10/14 07:37:43;;;;;;;24.43;9.30;;;;;;;22.36;53.82;100632.52;1750905;80;21340;-83
2023/10/14 07:40:50;;;;;;;17.07;8.68;;;;;;;22.56;53.64;100632.93;1751636;82;21296;-81
2023/10/14 07:43:55;;;;;;;18.42;8.80;;;;;;;22.69;53.53;100635.98;1752178;82;21297;-81
2023/10/14 07:47:05;;;;;;;15.95;8.43;;;;;;;22.73;53.35;100630.22;1752323;82;21814;-82
2023/10/14 07:50:10;;;;;;;17.55;8.75;;;;;;;22.73;53.47;100633.55;1752597;82;21274;-82
2023/10/14 07:53:22;;;;;;;16.80;7.87;;;;;;;22.78;53.68;100631.70;1770941;80;21314;-82
2023/10/14 07:56:23;;;;;;;14.87;6.90;;;;;;;22.89;53.67;100639.74;1783145;80;21330;-82
2023/10/14 07:59:34;;;;;;;16.30;8.35;;;;;;;22.87;54.07;100634.39;1783381;80;21880;-82
2023/10/14 08:02:36;;;;;;;20.23;8.05;;;;;;;23.08;53.46;100632.84;1782101;80;21295;-83
2023/10/14 08:05:53;;;;;;;24.92;7.92;;;;;;;22.95;53.80;100634.55;1783112;80;21295;-84
2023/10/14 08:08:56;;;;;;;18.02;6.70;;;;;;;23.13;53.79;100626.52;1781789;80;21900;-83
2023/10/14 08:12:01;;;;;;;15.03;6.92;;;;;;;23.09;54.06;100624.77;1781990;80;21349;-82
2023/10/14 08:15:07;;;;;;;15.48;7.87;;;;;;;23.31;53.77;100619.30;1783028;80;21300;-82
2023/10/14 08:18:13;;;;;;;20.85;8.55;;;;;;;23.52;52.88;100621.87;1783376;80;21885;-82
2023/10/14 08:21:18;;;;;;;11.83;6.80;;;;;;;23.65;52.60;100620.16;1781815;80;21938;-83
2023/10/14 08:24:24;;;;;;;25.25;6.92;;;;;;;23.87;52.32;100623.58;1782787;80;21276;-83
2023/10/14 08:27:32;;;;;;;18.23;7.37;;;;;;;23.94;52.33;100620.03;1781954;80;21278;-83
2023/10/14 08:30:32;;;;;;;15.38;6.70;;;;;;;24.07;51.94;100619.67;1766654;80;21316;-82
2023/10/14 08:33:38;;;;;;;24.80;6.40;;;;;;;24.11;51.96;100619.45;1752548;82;21809;-82
2023/10/14 08:36:44;;;;;;;13.80;6.47;;;;;;;24.33;51.27;100617.23;1752434;80;21328;-82
2023/10/14 08:39:51;;;;;;;21.77;6.78;;;;;;;24.26;51.51;100613.77;1752672;82;22192;-82
2023/10/14 08:43:09;;;;;;;18.85;6.12;;;;;;;24.25;51.78;100616.28;1752023;82;21565;-83
2023/10/14 08:46:14;;;;;;;19.62;5.25;;;;;;;24.64;50.95;100619.30;1777000;80;21322;-82
2023/10/14 08:49:23;;;;;;;10.13;4.70;;;;;;;24.87;50.60;100619.56;1783606;80;21279;-82
2023/10/14 08:52:27;;;;;;;11.43;4.83;;;;;;;25.22;50.13;100614.92;1783434;80;21284;-82
2023/10/14 08:55:36;;;;;;;10.32;4.12;;;;;;;25.37;49.92;100611.41;1783324;80;21248;-82
2023/10/14 08:58:42;;;;;;;13.95;4.97;;;;;;;25.72;48.98;100604.38;1783355;80;21233;-82
2023/10/14 09:01:47;;;;;;;10.28;4.53;;;;;;;25.77;49.10;100598.00;1782538;80;21319;-82
2023/10/14 09:04:55;;;;;;;14.78;4.72;;;;;;;25.92;49.05;100600.89;1771064;80;21319;-83
2023/10/14 09:08:02;;;;;;;16.27;5.60;;;;;;;25.87;49.22;100598.06;1769601;81;21252;-84
2023/10/14 09:11:07;;;;;;;14.47;4.78;;;;;;;25.89;49.29;100595.84;1768350;81;21928;-83
2023/10/14 09:14:16;;;;;;;12.28;4.67;;;;;;;26.07;49.00;100591.19;1769672;81;21272;-82
2023/10/14 09:17:22;;;;;;;11.60;5.03;;;;;;;26.06;49.11;100592.28;1768340;81;21883;-81
2023/10/14 09:20:37;;;;;;;15.48;5.33;;;;;;;26.16;49.09;100594.29;1768309;81;21271;-83
2023/10/14 09:23:44;;;;;;;19.20;6.35;;;;;;;26.40;48.71;100589.94;1769670;81;21248;-82
2023/10/14 09:26:50;;;;;;;15.53;4.75;;;;;;;26.27;49.00;100579.78;1769455;81;21323;-82
2023/10/14 09:29:58;;;;;;;14.40;4.25;;;;;;;26.10;49.34;100575.20;1769719;81;21311;-82
2023/10/14 09:33:03;;;;;;;12.25;3.80;;;;;;;26.11;49.45;100571.84;1769519;81;21956;-82
2023/10/14 09:36:14;;;;;;;8.48;3.25;;;;;;;26.51;48.60;100568.40;1769792;81;21673;-82
2023/10/14 09:39:24;;;;;;;11.70;3.37;;;;;;;26.53;48.75;100564.75;1769690;81;21584;-82
2023/10/14 09:42:27;;;;;;;11.97;3.22;;;;;;;26.68;48.20;100562.00;1769466;81;21928;-82
2023/10/14 09:45:33;;;;;;;6.83;2.50;;;;;;;26.67;47.63;100554.68;1754197;81;21803;-82
2023/10/14 09:48:40;;;;;;;13.08;3.25;;;;;;;26.86;46.91;100553.59;1738861;82;21355;-82
2023/10/14 09:51:48;;;;;;;12.15;2.60;;;;;;;26.92;46.47;100551.09;1739488;81;21875;-83
2023/10/14 09:54:53;;;;;;;10.28;2.75;;;;;;;27.08;45.85;100544.08;1769630;81;21280;-83
2023/10/14 09:57:58;;;;;;;7.03;2.60;;;;;;;26.94;45.73;100545.19;1769514;81;21280;-83
2023/10/14 10:01:04;;;;;;;10.60;2.65;;;;;;;27.10;45.48;100541.85;1770020;81;21314;-83
2023/10/14 10:04:21;;;;;;;10.32;2.92;;;;;;;27.16;45.26;100544.40;1770244;81;21323;-83
2023/10/14 10:08:05;;;;;;;9.93;3.12;;;;;;;26.75;46.29;100541.52;1760708;81;21313;-83
2023/10/14 10:11:11;;;;;;;9.33;2.72;;;;;;;26.36;46.88;100549.53;1739142;82;21302;-83
2023/10/14 10:14:18;;;;;;;11.15;3.30;;;;;;;26.77;46.28;100545.44;1739287;82;21299;-83
2023/10/14 10:17:26;;;;;;;12.98;3.60;;;;;;;26.89;46.14;100540.98;1738215;82;21325;-83
2023/10/14 10:20:41;;;;;;;10.15;2.83;;;;;;;26.83;46.22;100535.93;1738015;82;21926;-83
2023/10/14 10:23:47;;;;;;;9.38;4.15;;;;;;;26.79;45.93;100528.34;1728885;81;21353;-84
2023/10/14 10:27:14;;;;;;;5.70;3.15;;;;;;;26.84;45.80;100535.36;1711240;83;21334;-82
2023/10/14 10:30:22;;;;;;;8.55;3.08;;;;;;;26.97;45.43;100530.61;1728214;81;21291;-82
2023/10/14 10:33:31;;;;;;;10.20;3.72;;;;;;;26.97;45.01;100523.03;1727559;83;21306;-83
2023/10/14 10:36:41;;;;;;;9.68;3.40;;;;;;;26.87;45.35;100519.38;1727611;83;21318;-82
2023/10/14 10:39:50;;;;;;;6.33;2.87;;;;;;;27.11;44.85;100521.11;1754488;81;21653;-82
2023/10/14 10:43:09;;;;;;;10.38;3.30;;;;;;;27.12;44.62;100526.99;1754316;81;21314;-82
2023/10/14 10:46:16;;;;;;;9.00;3.33;;;;;;;27.24;43.60;100510.68;1766692;81;21296;-82
2023/10/14 10:49:22;;;;;;;11.38;3.55;;;;;;;27.12;43.60;100510.98;1769699;81;21296;-82
2023/10/14 10:52:28;;;;;;;16.07;3.95;;;;;;;27.21;43.46;100518.28;1769688;81;22380;-83
2023/10/14 10:55:39;;;;;;;7.55;2.65;;;;;;;27.05;43.77;100516.56;1769789;81;21237;-82
2023/10/14 10:58:42;;;;;;;9.93;3.37;;;;;;;26.91;43.94;100507.32;1769765;81;21303;-82
2023/10/14 11:01:47;;;;;;;11.73;3.35;;;;;;;26.91;43.70;100512.06;1769285;81;21713;-82
2023/10/14 11:04:54;;;;;;;13.05;3.17;;;;;;;26.86;43.79;100510.66;1760669;81;21299;-83
2023/10/14 11:08:00;;;;;;;11.43;3.37;;;;;;;26.91;43.59;100510.66;1753525;81;21266;-83
2023/10/14 11:11:07;;;;;;;11.57;3.77;;;;;;;27.07;43.47;100512.92;1739205;82;21306;-82
2023/10/14 11:14:26;;;;;;;12.75;3.47;;;;;;;27.40;42.89;100510.12;1731337;82;21811;-83
2023/10/14 11:17:31;;;;;;;18.32;4.37;;;;;;;27.56;42.32;100511.76;1739068;82;21306;-82
2023/10/14 11:20:53;;;;;;;17.35;5.05;;;;;;;27.30;42.79;100511.55;1739116;82;21302;-83
2023/10/14 11:24:01;;;;;;;11.40;4.15;;;;;;;27.28;42.97;100512.37;1738940;81;21357;-82
2023/10/14 11:27:07;;;;;;;8.08;3.83;;;;;;;27.34;42.49;100514.07;1739149;82;21953;-82
2023/10/14 11:30:16;;;;;;;12.05;4.00;;;;;;;27.29;42.36;100510.70;1738944;81;21281;-82
2023/10/14 11:33:23;;;;;;;5.92;3.58;;;;;;;27.45;41.97;100507.30;1738966;82;21851;-82
2023/10/14 11:36:32;;;;;;;11.55;4.42;;;;;;;27.39;41.77;100505.64;1738905;82;21705;-82
2023/10/14 11:39:38;;;;;;;12.45;4.05;;;;;;;27.33;41.55;100506.18;1731764;81;21829;-82
2023/10/14 11:42:46;;;;;;;10.60;3.50;;;;;;;27.26;41.71;100500.03;1739420;81;21867;-82
2023/10/14 11:45:54;;;;;;;13.35;4.47;;;;;;;27.24;41.60;100490.49;1692734;84;21914;-82
2023/10/14 11:49:00;;;;;;;20.20;4.45;;;;;;;27.38;41.21;100498.31;1695811;84;21306;-82
2023/10/14 11:52:07;;;;;;;8.25;4.00;;;;;;;27.35;40.97;100489.06;1667304;83;21351;-82
2023/10/14 11:55:17;;;;;;;9.40;3.42;;;;;;;27.11;41.25;100491.06;1720051;83;21272;-82
2023/10/14 11:58:23;;;;;;;12.18;3.30;;;;;;;27.13;41.38;100487.96;1720133;83;21849;-82
2023/10/14 12:01:34;;;;;;;20.75;3.65;;;;;;;27.12;41.37;100477.30;1724040;83;21305;-82
2023/10/14 12:04:38;;;;;;;7.20;3.10;;;;;;;27.38;41.02;100480.89;1724128;83;21297;-82
2023/10/14 12:07:51;;;;;;;10.48;3.08;;;;;;;27.45;40.90;100472.19;1709541;83;21817;-82
2023/10/14 12:10:54;;;;;;;9.53;3.50;;;;;;;27.49;40.62;100476.95;1688160;85;21879;-82
2023/10/14 12:14:00;;;;;;;16.12;3.30;;;;;;;27.25;40.92;100476.73;1687067;85;21809;-82
2023/10/14 12:17:07;;;;;;;8.43;3.15;;;;;;;27.23;40.87;100473.34;1704549;84;21351;-83
2023/10/14 12:20:14;;;;;;;7.20;3.33;;;;;;;27.05;41.04;100468.27;1680236;85;21439;-82
2023/10/14 12:23:29;;;;;;;7.10;3.05;;;;;;;26.99;41.25;100465.20;1705211;84;21304;-82
2023/10/14 12:26:36;;;;;;;8.05;2.85;;;;;;;27.02;41.14;100463.24;1722841;82;21312;-82
2023/10/14 12:29:41;;;;;;;14.00;3.60;;;;;;;27.09;40.99;100455.95;1734349;82;21716;-83
2023/10/14 12:32:47;;;;;;;12.98;3.75;;;;;;;26.93;41.02;100453.70;1680236;85;21332;-82
2023/10/14 12:35:53;;;;;;;11.57;3.20;;;;;;;26.95;40.74;100450.04;1679941;85;21303;-82
2023/10/14 12:39:06;;;;;;;9.58;3.00;;;;;;;26.92;40.85;100443.61;1696851;83;21895;-82
2023/10/14 12:42:06;;;;;;;6.45;2.72;;;;;;;26.88;40.75;100437.71;1707954;84;21400;-82
2023/10/14 12:45:13;;;;;;;8.70;3.08;;;;;;;27.04;40.29;100438.53;1708274;83;21921;-82
2023/10/14 12:48:24;;;;;;;8.98;3.22;;;;;;;27.13;40.20;100436.03;1707893;84;21861;-82
2023/10/14 12:51:35;;;;;;;10.63;3.08;;;;;;;27.16;40.15;100433.50;1708342;84;21297;-83
2023/10/14 12:54:38;;;;;;;7.15;2.62;;;;;;;27.15;39.87;100427.61;1708671;84;21708;-83
2023/10/14 12:57:44;;;;;;;11.80;3.17;;;;;;;27.15;39.45;100423.41;1709721;84;21303;-82
2023/10/14 13:00:48;;;;;;;13.55;3.17;;;;;;;27.10;39.59;100426.22;1708256;83;21340;-82
2023/10/14 13:04:01;;;;;;;19.57;3.08;;;;;;;27.09;39.66;100424.52;1682558;85;21323;-83
2023/10/14 13:07:08;;;;;;;18.52;3.25;;;;;;;27.16;39.55;100421.44;1693626;83;21592;-82
2023/10/14 13:10:24;;;;;;;8.65;2.98;;;;;;;27.19;39.41;100409.61;1691790;84;21945;-82
2023/10/14 13:13:23;;;;;;;7.37;3.52;;;;;;;27.39;39.08;100410.14;1749372;82;21270;-82
2023/10/14 13:16:31;;;;;;;7.08;2.90;;;;;;;27.06;39.09;100402.61;1775871;80;21714;-82
2023/10/14 13:19:37;;;;;;;7.58;3.00;;;;;;;26.93;39.17;100394.77;1780124;80;21330;-82
2023/10/14 13:22:42;;;;;;;10.23;2.90;;;;;;;26.92;39.13;100391.69;1779974;80;21338;-82
2023/10/14 13:25:48;;;;;;;6.00;2.58;;;;;;;26.78;39.25;100391.99;1780086;80;21927;-82
2023/10/14 13:28:55;;;;;;;16.15;3.65;;;;;;;26.64;39.25;100384.14;1779926;80;21296;-82
2023/10/14 13:32:01;;;;;;;18.00;3.37;;;;;;;26.65;39.13;100384.41;1780167;80;21829;-82
2023/10/14 13:35:06;;;;;;;13.15;3.62;;;;;;;26.57;39.30;100380.76;1780533;80;21275;-82
2023/10/14 13:38:13;;;;;;;8.55;3.00;;;;;;;26.35;39.59;100379.62;1780481;80;21299;-82
2023/10/14 13:41:23;;;;;;;8.38;3.65;;;;;;;26.24;39.75;100370.33;1780421;80;21911;-82
2023/10/14 13:44:27;;;;;;;7.92;3.20;;;;;;;26.31;39.58;100363.06;1778825;80;21271;-82
2023/10/14 13:47:33;;;;;;;8.25;3.17;;;;;;;26.21;39.53;100359.70;1749368;82;21332;-82
2023/10/14 13:50:41;;;;;;;14.18;3.42;;;;;;;26.11;39.73;100356.89;1748966;82;21305;-82
2023/10/14 13:53:48;;;;;;;11.43;2.92;;;;;;;26.18;39.63;100356.05;1775484;80;21786;-82
2023/10/14 13:56:55;;;;;;;7.22;2.65;;;;;;;26.10;39.74;100349.58;1779223;80;21289;-82
2023/10/14 14:00:07;;;;;;;11.08;3.00;;;;;;;26.04;39.75;100344.25;1780137;80;21244;-82
2023/10/14 14:03:07;;;;;;;7.70;2.98;;;;;;;25.98;39.64;100344.25;1780295;80;21798;-82
2023/10/14 14:06:16;;;;;;;6.28;2.75;;;;;;;25.89;39.68;100341.71;1779832;80;21646;-82
2023/10/14 14:09:22;;;;;;;7.45;3.22;;;;;;;25.92;39.69;100338.89;1778657;80;21332;-82
2023/10/14 14:12:27;;;;;;;5.65;2.42;;;;;;;25.89;39.60;100338.07;1776381;80;21975;-82
2023/10/14 14:15:32;;;;;;;9.73;2.67;;;;;;;25.76;39.80;100335.23;1762229;80;21273;-81
2023/10/14 14:18:38;;;;;;;10.80;3.00;;;;;;;25.81;39.66;100341.41;1747342;82;21348;-83
2023/10/14 14:21:44;;;;;;;7.03;2.77;;;;;;;25.58;40.08;100341.30;1747058;82;21925;-81
2023/10/14 14:24:50;;;;;;;10.28;3.35;;;;;;;25.43;40.36;100342.09;1756640;79;21240;-82
2023/10/14 14:27:56;;;;;;;7.58;3.10;;;;;;;25.57;40.14;100343.83;1764824;80;21634;-81
2023/10/14 14:31:02;;;;;;;12.55;3.62;;;;;;;25.51;40.18;100338.77;1769027;80;21297;-81
2023/10/14 14:34:11;;;;;;;8.08;3.65;;;;;;;25.33;40.50;100342.05;1764038;80;21275;-81
2023/10/14 14:37:17;;;;;;;17.10;3.72;;;;;;;25.17;40.77;100338.33;1761232;80;21256;-82